Time;durP1;ratioP1;P1;durP2;ratioP2;P2;SDS_P1;SDS_P2;PMS_P1;PMS_P2;Temp;Humidity;BMP_temperature;BMP_pressure;BME280_temperature;BME280_humidity;BME280_pressure;Samples;Min_cycle;Max_cycle;Signal;HPM_P1;HPM_P2
2020/12/27 00:02:14;;;;;;;12.13;6.93;;;1.60;99.90;;;;;;5081285;28;20271;-83
2020/12/27 00:04:42;;;;;;;13.57;7.03;;;1.80;99.90;;;;;;5077088;28;20218;-83
2020/12/27 00:07:10;;;;;;;8.93;5.05;;;1.70;99.90;;;;;;5083607;28;21081;-83
2020/12/27 00:09:37;;;;;;;6.85;4.10;;;1.40;99.90;;;;;;5082085;28;20210;-82
2020/12/27 00:12:04;;;;;;;6.25;4.68;;;1.70;99.90;;;;;;5074565;28;20198;-82
2020/12/27 00:14:31;;;;;;;8.85;5.00;;;1.70;99.90;;;;;;5071019;28;20206;-82
2020/12/27 00:17:03;;;;;;;8.07;4.40;;;1.80;99.90;;;;;;5077790;28;20660;-83
2020/12/27 00:19:29;;;;;;;7.75;4.25;;;1.60;99.90;;;;;;5057605;28;20286;-82
2020/12/27 00:21:57;;;;;;;7.30;4.70;;;1.80;99.90;;;;;;5069660;28;20210;-82
2020/12/27 00:24:24;;;;;;;6.85;4.35;;;1.80;99.90;;;;;;5070792;28;20223;-83
2020/12/27 00:26:50;;;;;;;13.43;5.13;;;1.90;99.90;;;;;;5062537;28;20238;-80
2020/12/27 00:29:17;;;;;;;9.70;4.75;;;1.90;99.90;;;;;;5069461;28;20218;-82
2020/12/27 00:31:44;;;;;;;6.60;4.13;;;1.70;99.90;;;;;;5064690;28;20266;-83
2020/12/27 00:34:11;;;;;;;6.70;3.83;;;1.70;99.90;;;;;;5081668;28;20206;-82
2020/12/27 00:36:37;;;;;;;6.07;3.42;;;1.60;99.90;;;;;;5067218;28;20231;-82
2020/12/27 00:39:06;;;;;;;7.15;4.43;;;1.60;99.90;;;;;;5066977;28;20206;-81
2020/12/27 00:41:34;;;;;;;9.63;4.65;;;1.80;99.90;;;;;;5080954;28;20213;-83
2020/12/27 00:44:00;;;;;;;8.30;4.90;;;1.90;99.90;;;;;;5065808;28;20238;-82
2020/12/27 00:46:27;;;;;;;7.15;4.15;;;1.80;99.90;;;;;;5070454;28;20233;-82
2020/12/27 00:48:54;;;;;;;8.48;4.50;;;1.80;99.90;;;;;;5061520;28;20211;-81
2020/12/27 00:51:21;;;;;;;7.45;4.30;;;1.60;99.90;;;;;;5068879;28;20550;-82
2020/12/27 00:53:47;;;;;;;10.95;4.63;;;1.30;99.90;;;;;;5083253;28;20575;-82
2020/12/27 00:56:15;;;;;;;8.70;5.05;;;1.60;99.90;;;;;;5080625;28;20626;-81
2020/12/27 00:58:42;;;;;;;7.97;3.97;;;1.40;99.90;;;;;;5079166;28;20254;-82
2020/12/27 01:01:09;;;;;;;7.32;4.28;;;1.30;99.90;;;;;;5075240;28;20198;-82
2020/12/27 01:03:36;;;;;;;8.30;4.63;;;1.60;99.90;;;;;;5062036;28;20227;-82
2020/12/27 01:06:03;;;;;;;9.48;4.70;;;1.50;99.90;;;;;;5072941;28;20205;-82
2020/12/27 01:08:30;;;;;;;12.15;5.25;;;1.60;99.90;;;;;;5079428;28;20206;-82
2020/12/27 01:10:59;;;;;;;6.47;4.38;;;1.50;99.90;;;;;;5086770;28;20209;-82
2020/12/27 01:13:26;;;;;;;6.05;3.78;;;1.50;99.90;;;;;;5090437;28;20198;-82
2020/12/27 01:15:53;;;;;;;7.65;4.07;;;1.60;99.90;;;;;;5082748;28;20216;-81
2020/12/27 01:18:20;;;;;;;7.55;4.07;;;1.60;99.90;;;;;;5062507;28;20282;-82
2020/12/27 01:20:47;;;;;;;10.98;4.85;;;1.50;99.90;;;;;;5077558;28;20225;-82
2020/12/27 01:23:13;;;;;;;9.15;4.40;;;1.60;99.90;;;;;;5079362;28;20213;-83
2020/12/27 01:25:39;;;;;;;9.32;4.72;;;1.60;99.90;;;;;;5068583;28;20202;-82
2020/12/27 01:28:06;;;;;;;6.45;4.18;;;1.60;99.90;;;;;;5081448;28;20226;-82
2020/12/27 01:30:34;;;;;;;6.20;3.90;;;1.50;99.90;;;;;;5065472;28;20213;-82
2020/12/27 01:33:00;;;;;;;10.27;3.97;;;1.70;99.90;;;;;;5063223;28;20198;-82
2020/12/27 01:35:27;;;;;;;7.47;4.38;;;1.60;99.90;;;;;;5079174;28;20259;-82
2020/12/27 01:37:54;;;;;;;8.20;4.60;;;1.70;99.90;;;;;;5071734;28;20259;-82
2020/12/27 01:40:20;;;;;;;8.00;3.78;;;1.60;99.90;;;;;;5077063;28;20672;-82
2020/12/27 01:42:54;;;;;;;9.93;4.80;;;1.60;99.90;;;;;;5076739;28;20217;-81
2020/12/27 01:45:20;;;;;;;8.50;5.25;;;1.50;99.90;;;;;;5076319;28;20210;-80
2020/12/27 01:47:50;;;;;;;6.40;4.35;;;1.30;99.90;;;;;;5070871;28;20233;-81
2020/12/27 01:50:17;;;;;;;8.07;4.40;;;1.30;99.90;;;;;;5057097;28;20652;-82
2020/12/27 01:52:44;;;;;;;9.90;4.78;;;1.50;99.90;;;;;;5074985;28;20202;-83
2020/12/27 01:55:12;;;;;;;7.57;4.43;;;1.40;99.90;;;;;;5077126;28;20297;-82
2020/12/27 01:58:06;;;;;;;7.07;4.50;;;1.20;99.90;;;;;;5077077;28;20248;-82
2020/12/27 02:00:35;;;;;;;6.70;3.85;;;1.50;99.90;;;;;;5059693;28;20206;-81
2020/12/27 02:03:05;;;;;;;11.05;4.90;;;1.40;99.90;;;;;;5062925;28;20229;-81
2020/12/27 02:05:31;;;;;;;7.75;4.60;;;1.40;99.90;;;;;;5068859;28;20251;-82
2020/12/27 02:07:59;;;;;;;7.75;4.60;;;1.60;99.90;;;;;;5064018;28;20226;-81
2020/12/27 02:10:25;;;;;;;9.00;4.65;;;1.40;99.90;;;;;;5079831;28;20256;-81
2020/12/27 02:12:52;;;;;;;6.05;3.83;;;1.50;99.90;;;;;;5080329;28;20213;-83
2020/12/27 02:15:18;;;;;;;8.50;4.72;;;1.40;99.90;;;;;;5069727;28;20197;-83
2020/12/27 02:17:45;;;;;;;10.13;4.65;;;1.40;99.90;;;;;;5066830;28;20276;-83
2020/12/27 02:20:12;;;;;;;7.30;4.57;;;1.40;99.90;;;;;;5064794;28;20220;-83
2020/12/27 02:22:40;;;;;;;6.20;3.53;;;1.40;99.90;;;;;;5076698;28;20224;-83
2020/12/27 02:25:07;;;;;;;11.15;4.50;;;1.40;99.90;;;;;;5064395;28;20233;-83
2020/12/27 02:27:34;;;;;;;7.68;4.30;;;1.30;99.90;;;;;;5056579;28;20268;-83
2020/12/27 02:30:01;;;;;;;7.20;3.85;;;1.50;99.90;;;;;;5061926;28;20213;-84
2020/12/27 02:32:27;;;;;;;6.88;4.10;;;1.30;99.90;;;;;;5072254;28;20377;-84
2020/12/27 02:34:54;;;;;;;10.35;3.80;;;1.40;99.90;;;;;;5078480;28;20691;-84
2020/12/27 02:37:20;;;;;;;8.23;3.85;;;1.30;99.90;;;;;;5075073;28;20336;-83
2020/12/27 02:39:47;;;;;;;7.72;4.32;;;1.40;99.90;;;;;;5074846;28;20202;-84
2020/12/27 02:42:14;;;;;;;8.93;4.45;;;1.30;99.90;;;;;;5067737;28;20198;-84
2020/12/27 02:44:58;;;;;;;6.75;4.22;;;1.40;99.90;;;;;;5057763;28;20248;-82
2020/12/27 02:47:25;;;;;;;8.13;3.97;;;1.50;99.90;;;;;;5056589;28;20253;-82
2020/12/27 02:49:52;;;;;;;7.07;3.28;;;1.60;99.90;;;;;;5056829;28;20293;-82
2020/12/27 02:52:18;;;;;;;6.22;3.20;;;1.30;99.90;;;;;;5070157;28;20214;-82
2020/12/27 02:54:45;;;;;;;6.25;3.17;;;1.50;99.90;;;;;;5054985;28;20286;-82
2020/12/27 02:57:12;;;;;;;7.72;3.47;;;1.40;99.90;;;;;;5066032;28;20218;-82
2020/12/27 02:59:39;;;;;;;6.22;3.75;;;1.40;99.90;;;;;;5071968;28;20239;-82
2020/12/27 03:02:06;;;;;;;6.88;3.50;;;1.30;99.90;;;;;;5062037;28;20210;-83
2020/12/27 03:04:32;;;;;;;6.63;3.88;;;1.40;99.90;;;;;;5073972;28;20263;-83
2020/12/27 03:06:59;;;;;;;8.60;4.25;;;1.30;99.90;;;;;;5074066;28;20283;-82
2020/12/27 03:09:25;;;;;;;7.10;4.00;;;1.10;99.90;;;;;;5055944;28;20199;-83
2020/12/27 03:11:52;;;;;;;13.82;5.20;;;1.20;99.90;;;;;;5054181;28;20292;-83
2020/12/27 03:14:18;;;;;;;7.45;4.93;;;1.20;99.90;;;;;;5072028;28;20194;-82
2020/12/27 03:16:46;;;;;;;7.10;4.65;;;0.90;99.90;;;;;;5073548;28;20229;-82
2020/12/27 03:19:12;;;;;;;8.57;4.38;;;1.00;99.90;;;;;;5072693;28;20303;-82
2020/12/27 03:21:39;;;;;;;6.30;4.00;;;1.10;99.90;;;;;;5073745;28;20214;-84
2020/12/27 03:24:05;;;;;;;7.75;3.50;;;1.00;99.90;;;;;;5071002;28;20218;-83
2020/12/27 03:26:32;;;;;;;7.60;4.65;;;1.20;99.90;;;;;;5072971;28;20685;-82
2020/12/27 03:28:59;;;;;;;7.60;4.10;;;1.10;99.90;;;;;;5074849;28;20209;-84
2020/12/27 03:31:25;;;;;;;7.45;3.70;;;1.20;99.90;;;;;;5083197;28;20309;-82
2020/12/27 03:33:53;;;;;;;7.57;4.10;;;1.20;99.90;;;;;;5062987;28;20206;-82
2020/12/27 03:36:19;;;;;;;8.98;4.00;;;1.10;99.90;;;;;;5053260;28;20290;-82
2020/12/27 03:38:46;;;;;;;5.30;3.72;;;1.10;99.90;;;;;;5064584;28;20194;-82
2020/12/27 03:41:12;;;;;;;9.27;4.40;;;1.10;99.90;;;;;;5073863;28;20205;-83
2020/12/27 03:43:39;;;;;;;10.02;4.15;;;1.20;99.90;;;;;;5068546;28;20574;-82
2020/12/27 03:46:07;;;;;;;7.57;4.15;;;1.10;99.90;;;;;;5062863;28;20215;-82
2020/12/27 03:48:33;;;;;;;7.30;4.50;;;1.00;99.90;;;;;;5066325;28;20538;-82
2020/12/27 03:51:01;;;;;;;7.40;4.18;;;1.20;99.90;;;;;;5072742;28;20220;-82
2020/12/27 03:53:27;;;;;;;6.63;3.70;;;1.00;99.90;;;;;;5067169;28;20260;-84
2020/12/27 03:55:54;;;;;;;7.75;3.92;;;1.10;99.90;;;;;;5053043;28;20340;-84
2020/12/27 03:58:21;;;;;;;6.57;3.88;;;1.00;99.90;;;;;;5053621;28;20214;-81
2020/12/27 04:00:47;;;;;;;6.75;3.25;;;1.30;99.90;;;;;;5053051;28;20665;-82
2020/12/27 04:03:14;;;;;;;6.28;4.10;;;1.10;99.90;;;;;;5069501;28;20217;-82
2020/12/27 04:05:40;;;;;;;7.05;4.30;;;1.10;99.90;;;;;;5076382;28;20286;-83
2020/12/27 04:08:07;;;;;;;7.80;4.53;;;1.10;99.90;;;;;;5059461;28;20226;-82
2020/12/27 04:10:34;;;;;;;7.80;3.78;;;0.90;99.90;;;;;;5060196;28;20289;-82
2020/12/27 04:13:01;;;;;;;7.22;4.45;;;1.10;99.90;;;;;;5057195;28;20557;-82
2020/12/27 04:15:27;;;;;;;7.97;4.05;;;1.10;99.90;;;;;;5057014;28;20286;-82
2020/12/27 04:17:54;;;;;;;7.82;3.35;;;1.00;99.90;;;;;;5076728;28;20226;-83
2020/12/27 04:20:20;;;;;;;7.57;4.25;;;1.10;99.90;;;;;;5076882;28;20202;-83
2020/12/27 04:22:50;;;;;;;8.45;3.83;;;1.10;99.90;;;;;;5073244;28;20203;-83
2020/12/27 04:25:17;;;;;;;6.95;3.83;;;1.10;99.90;;;;;;5069209;28;20813;-83
2020/12/27 04:27:44;;;;;;;5.72;3.25;;;1.10;99.90;;;;;;5075679;28;20236;-83
2020/12/27 04:30:11;;;;;;;7.35;3.80;;;1.00;99.90;;;;;;5074394;28;20208;-83
2020/12/27 04:32:37;;;;;;;7.20;3.83;;;1.10;99.90;;;;;;5073821;28;20680;-83
2020/12/27 04:35:04;;;;;;;6.78;4.45;;;1.10;99.90;;;;;;5066842;28;20191;-83
2020/12/27 04:37:31;;;;;;;8.80;4.72;;;1.10;99.90;;;;;;5073007;28;20226;-82
2020/12/27 04:39:58;;;;;;;7.25;3.90;;;1.10;99.90;;;;;;5060602;28;20205;-83
2020/12/27 04:42:26;;;;;;;8.15;3.67;;;1.10;99.90;;;;;;5068713;28;20221;-83
2020/12/27 04:44:55;;;;;;;8.52;4.80;;;1.00;99.90;;;;;;5061426;28;20696;-82
2020/12/27 04:47:24;;;;;;;6.15;3.97;;;1.10;99.90;;;;;;5077677;28;20229;-82
2020/12/27 04:49:51;;;;;;;7.55;3.80;;;1.00;99.90;;;;;;5075699;28;20194;-82
2020/12/27 04:52:21;;;;;;;6.75;3.92;;;0.90;99.90;;;;;;5063118;28;20822;-82
2020/12/27 04:54:51;;;;;;;6.38;3.30;;;0.80;99.90;;;;;;5083340;28;20201;-82
2020/12/27 04:57:18;;;;;;;8.15;4.50;;;0.80;99.90;;;;;;5078045;28;20291;-82
2020/12/27 04:59:48;;;;;;;8.70;4.07;;;1.10;99.90;;;;;;5060264;28;20206;-82
2020/12/27 05:02:15;;;;;;;8.52;3.70;;;0.80;99.90;;;;;;5076133;28;20660;-82
2020/12/27 05:04:45;;;;;;;8.43;4.18;;;0.90;99.90;;;;;;5068518;28;20219;-82
2020/12/27 05:07:17;;;;;;;8.50;4.10;;;0.90;99.90;;;;;;5059474;28;20573;-82
2020/12/27 05:09:43;;;;;;;8.60;4.57;;;0.80;99.90;;;;;;5071076;28;20194;-82
2020/12/27 05:12:11;;;;;;;6.47;4.05;;;0.80;99.90;;;;;;5071429;28;20212;-82
2020/12/27 05:14:38;;;;;;;7.90;4.40;;;0.70;99.90;;;;;;5059274;28;20195;-82
2020/12/27 05:17:05;;;;;;;7.88;4.45;;;1.10;99.90;;;;;;5062784;28;20612;-82
2020/12/27 05:19:32;;;;;;;7.10;4.28;;;1.00;99.90;;;;;;5054082;28;20206;-82
2020/12/27 05:22:08;;;;;;;7.75;4.60;;;1.00;99.90;;;;;;5073189;28;20774;-82
2020/12/27 05:24:37;;;;;;;8.88;5.13;;;1.10;99.90;;;;;;5073977;28;20290;-82
2020/12/27 05:27:06;;;;;;;9.25;3.65;;;0.90;99.90;;;;;;5053952;28;20337;-82
2020/12/27 05:29:34;;;;;;;7.95;4.25;;;1.00;99.90;;;;;;5054410;28;20286;-82
2020/12/27 05:32:01;;;;;;;8.23;4.60;;;0.90;99.90;;;;;;5053850;28;20217;-82
2020/12/27 05:34:30;;;;;;;10.63;4.63;;;1.10;99.90;;;;;;5057016;28;20209;-83
2020/12/27 05:36:57;;;;;;;7.30;4.13;;;1.00;99.90;;;;;;5067720;28;20229;-83
2020/12/27 05:39:24;;;;;;;9.20;4.72;;;0.90;99.90;;;;;;5073669;28;20414;-83
2020/12/27 05:41:51;;;;;;;6.82;4.00;;;0.90;99.90;;;;;;5076743;28;20749;-83
2020/12/27 05:44:20;;;;;;;7.00;4.10;;;0.90;99.90;;;;;;5074688;28;20233;-83
2020/12/27 05:46:47;;;;;;;12.20;4.78;;;1.00;99.90;;;;;;5075462;28;20222;-83
2020/12/27 05:49:13;;;;;;;10.50;4.88;;;1.00;99.90;;;;;;5073422;28;20691;-83
2020/12/27 05:51:53;;;;;;;7.95;4.63;;;0.90;99.90;;;;;;5064104;28;20211;-83
2020/12/27 05:54:29;;;;;;;9.13;5.00;;;1.00;99.90;;;;;;5057783;28;20187;-81
2020/12/27 05:56:58;;;;;;;6.65;4.55;;;1.00;99.90;;;;;;5057065;28;20596;-81
2020/12/27 05:59:29;;;;;;;6.57;4.25;;;1.10;99.90;;;;;;5064981;28;20659;-82
2020/12/27 06:01:57;;;;;;;11.20;4.15;;;1.00;99.90;;;;;;5080279;28;20213;-81
2020/12/27 06:04:57;;;;;;;10.02;4.75;;;1.10;99.90;;;;;;5058036;28;20218;-81
2020/12/27 06:07:37;;;;;;;8.25;4.78;;;1.00;99.90;;;;;;5070934;28;20275;-82
2020/12/27 06:10:06;;;;;;;8.65;4.30;;;1.30;99.90;;;;;;5072551;28;20194;-81
2020/12/27 06:13:29;;;;;;;7.97;4.30;;;1.20;99.90;;;;;;5059748;28;20231;-81
2020/12/27 06:15:57;;;;;;;7.78;4.60;;;1.30;99.90;;;;;;5069454;28;20206;-82
2020/12/27 06:18:28;;;;;;;8.55;4.78;;;1.30;99.90;;;;;;5082988;28;20224;-81
2020/12/27 06:21:07;;;;;;;7.13;4.57;;;1.20;99.90;;;;;;5089740;28;20198;-82
2020/12/27 06:23:35;;;;;;;10.98;6.00;;;1.20;99.90;;;;;;5071310;28;20199;-82
2020/12/27 06:26:02;;;;;;;11.07;4.63;;;1.10;99.90;;;;;;5058722;28;20232;-82
2020/12/27 06:28:30;;;;;;;11.90;4.38;;;1.10;99.90;;;;;;5060391;28;20198;-82
2020/12/27 06:30:59;;;;;;;7.25;4.07;;;1.30;99.90;;;;;;5076544;28;20282;-82
2020/12/27 06:33:28;;;;;;;8.43;5.00;;;1.10;99.90;;;;;;5071171;28;20622;-82
2020/12/27 06:35:54;;;;;;;7.10;3.85;;;1.10;99.90;;;;;;5063734;28;20203;-82
2020/12/27 06:38:23;;;;;;;8.10;4.15;;;1.40;99.90;;;;;;5059544;28;20264;-81
2020/12/27 06:40:55;;;;;;;8.80;4.30;;;1.30;99.90;;;;;;5056905;28;20234;-82
2020/12/27 06:43:23;;;;;;;7.18;4.15;;;1.10;99.90;;;;;;5056374;28;20516;-82
2020/12/27 06:45:50;;;;;;;9.93;4.30;;;1.30;99.90;;;;;;5055669;28;20227;-82
2020/12/27 06:48:34;;;;;;;8.48;4.70;;;1.40;99.90;;;;;;5065472;28;20222;-81
2020/12/27 06:51:01;;;;;;;10.43;4.75;;;1.30;99.90;;;;;;5061150;28;20207;-82
2020/12/27 06:53:51;;;;;;;8.13;3.92;;;1.30;99.90;;;;;;5054536;28;20221;-81
2020/12/27 06:56:19;;;;;;;6.80;4.10;;;1.30;99.90;;;;;;5043614;28;20310;-81
2020/12/27 06:59:00;;;;;;;7.57;4.15;;;1.40;99.90;;;;;;5073894;28;20198;-80
2020/12/27 07:01:27;;;;;;;9.35;4.10;;;1.20;99.90;;;;;;5073798;28;20206;-81
2020/12/27 07:04:11;;;;;;;8.05;4.50;;;1.40;99.90;;;;;;5065902;28;20244;-81
2020/12/27 07:06:40;;;;;;;8.38;4.10;;;1.30;99.90;;;;;;5054659;28;20317;-81
2020/12/27 07:09:10;;;;;;;6.30;4.43;;;1.20;99.90;;;;;;5074711;28;20221;-81
2020/12/27 07:11:37;;;;;;;6.85;4.22;;;1.30;99.90;;;;;;5073973;28;20202;-81
2020/12/27 07:14:04;;;;;;;6.72;3.60;;;1.40;99.90;;;;;;5073280;28;20689;-81
2020/12/27 07:16:48;;;;;;;6.82;3.92;;;1.40;99.90;;;;;;5074366;28;20237;-82
2020/12/27 07:19:16;;;;;;;11.43;4.70;;;1.30;99.90;;;;;;5057994;28;20203;-82
2020/12/27 07:21:46;;;;;;;6.22;4.13;;;1.50;99.90;;;;;;5053835;28;20206;-82
2020/12/27 07:24:22;;;;;;;8.65;4.53;;;1.40;99.90;;;;;;5053366;28;20226;-82
2020/12/27 07:26:50;;;;;;;9.82;4.72;;;1.40;99.90;;;;;;5070791;28;20217;-83
2020/12/27 07:29:22;;;;;;;8.52;3.80;;;1.40;99.90;;;;;;5064541;28;20675;-82
2020/12/27 07:31:51;;;;;;;8.07;3.85;;;1.50;99.90;;;;;;5053237;28;20749;-82
2020/12/27 07:34:23;;;;;;;11.52;4.60;;;1.50;99.90;;;;;;5068375;28;20217;-82
2020/12/27 07:36:57;;;;;;;7.38;4.55;;;1.40;99.90;;;;;;5071621;28;20229;-82
2020/12/27 07:39:52;;;;;;;7.47;4.68;;;1.60;99.90;;;;;;5054971;28;20210;-82
2020/12/27 07:42:24;;;;;;;14.65;5.10;;;1.40;99.90;;;;;;5100080;22;20222;-80
2020/12/27 07:44:51;;;;;;;6.93;3.65;;;1.50;99.90;;;;;;5060191;28;20226;-79
2020/12/27 07:47:18;;;;;;;6.38;3.90;;;1.50;99.90;;;;;;5070767;28;20207;-78
2020/12/27 07:50:11;;;;;;;8.13;4.75;;;1.50;99.90;;;;;;5066686;28;20221;-79
2020/12/27 07:52:54;;;;;;;7.70;4.43;;;1.40;99.90;;;;;;5068839;28;20226;-79
2020/12/27 07:55:29;;;;;;;9.48;4.05;;;1.50;99.90;;;;;;5068553;28;20210;-78
2020/12/27 07:57:58;;;;;;;8.65;5.40;;;1.60;99.90;;;;;;5053994;28;20210;-78
2020/12/27 08:00:26;;;;;;;6.15;3.90;;;1.60;99.90;;;;;;5053868;28;20207;-79
2020/12/27 08:02:53;;;;;;;7.18;4.25;;;1.60;99.90;;;;;;5051770;28;20269;-79
2020/12/27 08:05:20;;;;;;;7.15;3.70;;;1.60;99.90;;;;;;5051013;28;20226;-80
2020/12/27 08:07:47;;;;;;;7.68;4.15;;;1.60;99.90;;;;;;5045216;28;20200;-80
2020/12/27 08:10:19;;;;;;;6.07;3.80;;;1.60;99.90;;;;;;5049003;28;20211;-80
2020/12/27 08:12:54;;;;;;;7.22;4.18;;;1.70;99.90;;;;;;5057280;28;20239;-81
2020/12/27 08:15:22;;;;;;;8.80;4.55;;;1.70;99.90;;;;;;5056808;28;20203;-81
2020/12/27 08:17:56;;;;;;;8.23;4.10;;;1.90;99.90;;;;;;5054632;28;20218;-79
2020/12/27 08:20:24;;;;;;;7.40;4.38;;;1.60;99.90;;;;;;5050233;28;20207;-79
2020/12/27 08:23:07;;;;;;;6.70;3.90;;;1.70;99.90;;;;;;5061732;28;20223;-80
2020/12/27 08:25:36;;;;;;;8.52;4.40;;;1.50;99.90;;;;;;5045736;28;20234;-80
2020/12/27 08:28:04;;;;;;;10.07;4.90;;;1.50;99.90;;;;;;5039325;28;20200;-81
2020/12/27 08:30:32;;;;;;;5.50;3.72;;;1.80;99.90;;;;;;5031616;28;20579;-82
2020/12/27 08:33:10;;;;;;;9.60;3.67;;;1.70;99.90;;;;;;5038815;28;20234;-81
2020/12/27 08:35:37;;;;;;;10.63;4.22;;;1.90;99.90;;;;;;5041420;28;20203;-78
2020/12/27 08:38:15;;;;;;;10.25;5.47;;;1.70;99.90;;;;;;5040676;28;20215;-81
2020/12/27 08:40:46;;;;;;;9.27;5.05;;;2.00;99.90;;;;;;5049858;28;20203;-81
2020/12/27 08:43:22;;;;;;;8.98;5.32;;;1.80;99.90;;;;;;5042146;28;20246;-81
2020/12/27 08:45:58;;;;;;;7.95;4.78;;;1.80;99.90;;;;;;5039761;28;20226;-81
2020/12/27 08:48:31;;;;;;;7.35;3.85;;;1.70;99.90;;;;;;5039351;28;20207;-78
2020/12/27 08:51:02;;;;;;;7.05;4.13;;;2.10;99.90;;;;;;5051386;28;20207;-79
2020/12/27 08:53:39;;;;;;;7.85;4.35;;;1.80;99.90;;;;;;5054112;28;20212;-79
2020/12/27 08:56:06;;;;;;;5.78;3.35;;;2.10;99.90;;;;;;5036595;28;20199;-79
2020/12/27 08:58:33;;;;;;;6.93;4.07;;;1.90;99.90;;;;;;5036196;28;20261;-79
2020/12/27 09:01:00;;;;;;;8.23;4.20;;;2.00;99.90;;;;;;5037132;28;20211;-79
2020/12/27 09:03:27;;;;;;;6.28;3.72;;;1.80;99.90;;;;;;5037050;28;20238;-78
2020/12/27 09:05:53;;;;;;;7.57;3.70;;;2.00;99.90;;;;;;5041053;28;20235;-78
2020/12/27 09:08:20;;;;;;;6.50;3.55;;;1.80;99.90;;;;;;5036318;28;20265;-78
2020/12/27 09:10:48;;;;;;;6.55;3.53;;;1.90;99.90;;;;;;5035829;28;20214;-77
2020/12/27 09:13:15;;;;;;;6.32;3.50;;;2.10;99.90;;;;;;5036158;28;20694;-78
2020/12/27 09:15:45;;;;;;;6.20;3.90;;;2.10;99.90;;;;;;5036047;28;20200;-78
2020/12/27 09:18:13;;;;;;;8.20;3.80;;;1.90;99.90;;;;;;5037273;28;20207;-78
2020/12/27 09:20:41;;;;;;;7.78;4.50;;;2.20;99.90;;;;;;5045288;28;20214;-78
2020/12/27 09:23:12;;;;;;;8.80;4.03;;;2.10;99.90;;;;;;5044418;28;20231;-79
2020/12/27 09:25:39;;;;;;;8.60;3.97;;;2.30;99.90;;;;;;5041263;28;20254;-78
2020/12/27 09:28:13;;;;;;;6.82;3.85;;;2.10;99.90;;;;;;5035486;28;20203;-78
2020/12/27 09:30:40;;;;;;;6.93;4.10;;;2.20;99.90;;;;;;5035268;28;20215;-79
2020/12/27 09:33:06;;;;;;;6.88;4.10;;;2.30;99.90;;;;;;5047640;28;20230;-80
2020/12/27 09:35:34;;;;;;;7.93;4.97;;;2.20;99.90;;;;;;5056569;28;20199;-79
2020/12/27 09:38:01;;;;;;;7.68;4.10;;;2.40;99.90;;;;;;5037986;28;20258;-79
2020/12/27 09:40:29;;;;;;;8.85;4.40;;;2.40;99.90;;;;;;5039065;28;20203;-79
2020/12/27 09:43:01;;;;;;;8.75;4.45;;;2.60;99.90;;;;;;5038483;28;20267;-80
2020/12/27 09:45:28;;;;;;;8.02;4.30;;;2.50;99.90;;;;;;5038054;28;20245;-79
2020/12/27 09:47:56;;;;;;;6.78;4.18;;;2.80;99.90;;;;;;5038565;28;20261;-79
2020/12/27 09:50:28;;;;;;;7.38;4.88;;;2.70;99.90;;;;;;5041473;28;20692;-79
2020/12/27 09:52:57;;;;;;;7.95;4.45;;;2.60;99.90;;;;;;5045112;28;20227;-80
2020/12/27 09:55:24;;;;;;;7.15;3.67;;;2.50;99.90;;;;;;5051941;28;20191;-79
2020/12/27 09:57:50;;;;;;;8.68;4.10;;;2.50;99.90;;;;;;5041494;28;20207;-80
2020/12/27 10:00:17;;;;;;;8.68;4.00;;;2.60;99.90;;;;;;5038199;28;20249;-79
2020/12/27 10:02:44;;;;;;;9.20;5.00;;;2.60;99.90;;;;;;5058211;28;20477;-79
2020/12/27 10:05:11;;;;;;;8.00;4.10;;;2.70;99.90;;;;;;5050599;28;20211;-80
2020/12/27 10:07:38;;;;;;;7.97;3.97;;;2.90;99.90;;;;;;5040401;28;20230;-81
2020/12/27 10:10:06;;;;;;;5.88;3.80;;;2.90;99.90;;;;;;5041594;28;20219;-80
2020/12/27 10:12:33;;;;;;;11.20;5.03;;;2.80;99.90;;;;;;5039864;28;20231;-80
2020/12/27 10:15:00;;;;;;;7.03;4.40;;;2.70;99.90;;;;;;5045067;28;20214;-86
2020/12/27 10:17:27;;;;;;;9.02;4.93;;;2.70;99.90;;;;;;5058048;28;20210;-86
2020/12/27 10:19:53;;;;;;;7.18;4.03;;;2.70;99.90;;;;;;5042008;28;20294;-86
2020/12/27 10:22:20;;;;;;;6.93;4.25;;;2.80;99.90;;;;;;5038263;28;20238;-84
2020/12/27 10:24:47;;;;;;;7.95;4.13;;;2.60;99.90;;;;;;5036784;28;20227;-86
2020/12/27 10:27:14;;;;;;;7.93;4.68;;;2.60;99.90;;;;;;5035113;28;20203;-85
2020/12/27 10:29:41;;;;;;;6.40;3.65;;;2.60;99.90;;;;;;5037478;28;20210;-85
2020/12/27 10:32:08;;;;;;;6.65;4.05;;;2.70;99.90;;;;;;5037881;28;20237;-84
2020/12/27 10:34:35;;;;;;;9.05;4.85;;;2.50;99.90;;;;;;5036760;28;20592;-86
2020/12/27 10:37:03;;;;;;;6.45;3.78;;;2.60;99.90;;;;;;5035762;28;20291;-86
2020/12/27 10:39:30;;;;;;;7.25;3.88;;;2.50;99.90;;;;;;5035868;28;20223;-81
2020/12/27 10:41:57;;;;;;;8.73;4.80;;;2.80;99.90;;;;;;5037063;28;20242;-87
2020/12/27 10:44:26;;;;;;;7.38;3.65;;;2.80;99.90;;;;;;5040358;28;20219;-80
2020/12/27 10:46:53;;;;;;;9.07;4.65;;;2.80;99.90;;;;;;5038284;28;20207;-79
2020/12/27 10:49:20;;;;;;;7.65;3.70;;;2.90;99.90;;;;;;5035843;28;20353;-78
2020/12/27 10:51:48;;;;;;;6.10;4.28;;;3.00;99.90;;;;;;5035915;28;20594;-78
2020/12/27 10:54:15;;;;;;;9.23;4.80;;;2.80;99.90;;;;;;5035422;28;20999;-79
2020/12/27 10:56:43;;;;;;;9.75;4.28;;;3.00;99.90;;;;;;5035323;28;20199;-81
2020/12/27 10:59:10;;;;;;;7.63;4.32;;;2.90;99.90;;;;;;5043425;28;20202;-84
2020/12/27 11:01:43;;;;;;;7.18;4.65;;;3.30;99.90;;;;;;5035875;28;20786;-86
2020/12/27 11:04:09;;;;;;;9.55;4.65;;;3.20;99.90;;;;;;5036452;28;20215;-79
2020/12/27 11:06:36;;;;;;;7.25;4.85;;;3.10;99.90;;;;;;5037501;28;20211;-79
2020/12/27 11:09:03;;;;;;;7.28;4.43;;;3.10;99.90;;;;;;5047646;28;20224;-81
2020/12/27 11:11:29;;;;;;;10.55;4.68;;;3.20;99.90;;;;;;5035824;28;20223;-79
2020/12/27 11:13:56;;;;;;;8.73;4.95;;;3.20;99.90;;;;;;5035541;28;20299;-79
2020/12/27 11:16:22;;;;;;;8.30;4.40;;;3.10;99.90;;;;;;5036629;28;20620;-81
2020/12/27 11:18:50;;;;;;;7.05;4.10;;;3.20;99.90;;;;;;5036508;28;20210;-82
2020/12/27 11:21:17;;;;;;;7.25;4.20;;;3.20;99.90;;;;;;5036426;28;20270;-81
2020/12/27 11:23:43;;;;;;;8.43;4.22;;;3.50;99.90;;;;;;5042156;28;20199;-84
2020/12/27 11:26:10;;;;;;;13.40;4.90;;;3.50;99.90;;;;;;5041779;28;20283;-84
2020/12/27 11:28:37;;;;;;;8.77;5.28;;;3.50;99.90;;;;;;5037707;28;20211;-84
2020/12/27 11:31:04;;;;;;;9.07;6.15;;;3.40;99.90;;;;;;5036065;28;20407;-83
2020/12/27 11:33:30;;;;;;;9.05;5.63;;;3.40;99.90;;;;;;5036039;28;20199;-81
2020/12/27 11:35:57;;;;;;;9.52;5.40;;;3.50;99.90;;;;;;5038044;28;20190;-82
2020/12/27 11:38:24;;;;;;;9.15;5.60;;;3.30;99.90;;;;;;5035438;28;20315;-79
2020/12/27 11:40:58;;;;;;;11.02;5.60;;;3.50;99.90;;;;;;5039008;28;20257;-87
2020/12/27 11:43:25;;;;;;;9.52;5.32;;;3.50;99.90;;;;;;5037563;28;20320;-79
2020/12/27 11:45:51;;;;;;;7.15;4.70;;;3.60;99.90;;;;;;5041271;28;20483;-80
2020/12/27 11:48:18;;;;;;;8.02;4.65;;;3.80;99.90;;;;;;5047594;28;20230;-80
2020/12/27 11:50:44;;;;;;;8.40;5.78;;;3.90;99.90;;;;;;5052569;28;20206;-77
2020/12/27 11:53:12;;;;;;;7.47;4.97;;;3.70;99.90;;;;;;5042227;28;20229;-78
2020/12/27 11:55:39;;;;;;;7.43;4.65;;;3.60;99.90;;;;;;5033502;28;20214;-78
2020/12/27 11:58:06;;;;;;;9.55;5.43;;;3.50;99.90;;;;;;5036077;28;20199;-79
2020/12/27 12:00:33;;;;;;;12.57;5.55;;;3.40;99.90;;;;;;5035905;28;20211;-80
2020/12/27 12:02:59;;;;;;;7.45;5.40;;;3.50;99.90;;;;;;5035490;28;20235;-81
2020/12/27 12:05:26;;;;;;;8.93;5.25;;;3.40;99.90;;;;;;5039077;28;20242;-85
2020/12/27 12:07:53;;;;;;;11.98;5.63;;;3.40;99.90;;;;;;5040462;28;20206;-83
2020/12/27 12:10:20;;;;;;;9.45;5.03;;;3.50;99.90;;;;;;5037053;28;20207;-87
2020/12/27 12:12:47;;;;;;;9.02;5.95;;;3.60;99.90;;;;;;5036892;28;20693;-79
2020/12/27 12:15:13;;;;;;;8.15;5.25;;;3.30;99.90;;;;;;5034040;28;20231;-78
2020/12/27 12:17:43;;;;;;;9.13;5.35;;;3.40;99.90;;;;;;5035235;28;20230;-80
2020/12/27 12:20:42;;;;;;;7.07;5.18;;;3.70;99.90;;;;;;5038742;28;20202;-81
2020/12/27 12:22:57;;;;;;;8.18;5.05;;;3.80;99.90;;;;;;5037298;28;20720;-86
2020/12/27 12:25:25;;;;;;;9.02;5.25;;;3.80;99.90;;;;;;5045206;28;20219;-88
2020/12/27 12:27:51;;;;;;;7.88;5.72;;;3.50;99.90;;;;;;5044537;28;20215;-80
2020/12/27 12:30:18;;;;;;;8.75;5.40;;;3.40;99.90;;;;;;5038615;28;20673;-83
2020/12/27 12:32:45;;;;;;;9.30;5.25;;;3.70;99.90;;;;;;5038906;28;20619;-82
2020/12/27 12:35:11;;;;;;;7.78;5.50;;;3.80;99.90;;;;;;5036502;28;20294;-79
2020/12/27 12:37:38;;;;;;;8.15;5.30;;;3.90;99.90;;;;;;5036870;28;20203;-82
2020/12/27 12:40:06;;;;;;;9.18;5.80;;;3.70;99.90;;;;;;5036911;28;20203;-77
2020/12/27 12:42:36;;;;;;;10.82;5.82;;;3.70;99.90;;;;;;5038287;28;20235;-82
2020/12/27 12:45:04;;;;;;;8.13;5.90;;;3.60;99.90;;;;;;5038278;28;20215;-79
2020/12/27 12:47:31;;;;;;;8.23;5.57;;;3.80;99.90;;;;;;5051486;28;20206;-83
2020/12/27 12:49:58;;;;;;;8.38;5.10;;;3.70;99.90;;;;;;5052555;28;20275;-79
2020/12/27 12:52:25;;;;;;;8.63;6.07;;;4.00;99.90;;;;;;5038523;28;20231;-82
2020/12/27 12:54:51;;;;;;;10.43;5.40;;;3.90;99.90;;;;;;5039356;28;20207;-82
2020/12/27 12:57:18;;;;;;;7.80;4.88;;;3.70;99.90;;;;;;5039049;28;20211;-88
2020/12/27 12:59:45;;;;;;;9.10;5.25;;;3.90;99.90;;;;;;5039191;28;20203;-85
2020/12/27 13:02:12;;;;;;;8.65;5.50;;;4.20;99.90;;;;;;5039755;28;20223;-85
2020/12/27 13:04:38;;;;;;;9.43;5.53;;;4.30;99.90;;;;;;5040064;28;20230;-86